sensor_id;sensor_type;location;lat;lon;timestamp;temperature;humidity
52415;DHT22;38340;52.964;6.086;2023-05-20T00:01:12;10.00;99.90
52415;DHT22;38340;52.964;6.086;2023-05-20T00:03:38;10.00;99.90
52415;DHT22;38340;52.964;6.086;2023-05-20T00:06:04;10.00;99.90
52415;DHT22;38340;52.964;6.086;2023-05-20T00:08:29;10.00;99.90
52415;DHT22;38340;52.964;6.086;2023-05-20T00:10:55;9.90;99.90
52415;DHT22;38340;52.964;6.086;2023-05-20T00:13:21;9.90;99.90
52415;DHT22;38340;52.964;6.086;2023-05-20T00:15:48;9.90;99.90
52415;DHT22;38340;52.964;6.086;2023-05-20T00:18:14;9.90;99.90
52415;DHT22;38340;52.964;6.086;2023-05-20T00:20:40;9.90;99.90
52415;DHT22;38340;52.964;6.086;2023-05-20T00:23:05;9.90;99.90
52415;DHT22;38340;52.964;6.086;2023-05-20T00:25:31;9.90;99.90
52415;DHT22;38340;52.964;6.086;2023-05-20T00:27:57;9.90;99.90
52415;DHT22;38340;52.964;6.086;2023-05-20T00:30:23;9.80;99.90
52415;DHT22;38340;52.964;6.086;2023-05-20T00:32:48;9.80;99.90
52415;DHT22;38340;52.964;6.086;2023-05-20T00:35:14;9.80;99.90
52415;DHT22;38340;52.964;6.086;2023-05-20T00:37:40;9.80;99.90
52415;DHT22;38340;52.964;6.086;2023-05-20T00:40:06;9.80;99.90
52415;DHT22;38340;52.964;6.086;2023-05-20T00:42:32;9.80;99.90
52415;DHT22;38340;52.964;6.086;2023-05-20T00:44:59;9.70;99.90
52415;DHT22;38340;52.964;6.086;2023-05-20T00:47:27;9.70;99.90
52415;DHT22;38340;52.964;6.086;2023-05-20T00:49:54;9.70;99.90
52415;DHT22;38340;52.964;6.086;2023-05-20T00:52:20;9.70;99.90
52415;DHT22;38340;52.964;6.086;2023-05-20T00:54:46;9.70;99.90
52415;DHT22;38340;52.964;6.086;2023-05-20T00:57:13;9.70;99.90
52415;DHT22;38340;52.964;6.086;2023-05-20T00:59:39;9.70;99.90
52415;DHT22;38340;52.964;6.086;2023-05-20T01:02:05;9.70;99.90
52415;DHT22;38340;52.964;6.086;2023-05-20T01:04:31;9.60;99.90
52415;DHT22;38340;52.964;6.086;2023-05-20T01:07:03;9.60;99.90
52415;DHT22;38340;52.964;6.086;2023-05-20T01:09:31;9.60;99.90
52415;DHT22;38340;52.964;6.086;2023-05-20T01:14:57;9.60;99.90
52415;DHT22;38340;52.964;6.086;2023-05-20T01:17:26;9.50;99.90
52415;DHT22;38340;52.964;6.086;2023-05-20T01:19:54;9.50;99.90
52415;DHT22;38340;52.964;6.086;2023-05-20T01:22:25;9.50;99.90
52415;DHT22;38340;52.964;6.086;2023-05-20T01:24:51;9.50;99.90
52415;DHT22;38340;52.964;6.086;2023-05-20T01:27:20;9.50;99.90
52415;DHT22;38340;52.964;6.086;2023-05-20T01:29:50;9.40;99.90
52415;DHT22;38340;52.964;6.086;2023-05-20T01:32:33;9.40;99.90
52415;DHT22;38340;52.964;6.086;2023-05-20T01:35:02;9.40;99.90
52415;DHT22;38340;52.964;6.086;2023-05-20T01:37:30;9.40;99.90
52415;DHT22;38340;52.964;6.086;2023-05-20T01:39:57;9.40;99.90
52415;DHT22;38340;52.964;6.086;2023-05-20T01:42:25;9.30;99.90
52415;DHT22;38340;52.964;6.086;2023-05-20T01:44:52;9.30;99.90
52415;DHT22;38340;52.964;6.086;2023-05-20T01:47:18;9.20;99.90
52415;DHT22;38340;52.964;6.086;2023-05-20T01:49:44;9.20;99.90
52415;DHT22;38340;52.964;6.086;2023-05-20T01:52:11;9.20;99.90
52415;DHT22;38340;52.964;6.086;2023-05-20T01:54:36;9.20;99.90
52415;DHT22;38340;52.964;6.086;2023-05-20T01:57:02;9.20;99.90
52415;DHT22;38340;52.964;6.086;2023-05-20T01:59:28;9.20;99.90
52415;DHT22;38340;52.964;6.086;2023-05-20T02:01:53;9.10;99.90
52415;DHT22;38340;52.964;6.086;2023-05-20T02:04:19;9.10;99.90
52415;DHT22;38340;52.964;6.086;2023-05-20T02:06:47;9.10;99.90
52415;DHT22;38340;52.964;6.086;2023-05-20T02:09:13;9.00;99.90
52415;DHT22;38340;52.964;6.086;2023-05-20T02:11:39;9.00;99.90
52415;DHT22;38340;52.964;6.086;2023-05-20T02:14:04;9.00;99.90
52415;DHT22;38340;52.964;6.086;2023-05-20T02:16:30;9.10;99.90
52415;DHT22;38340;52.964;6.086;2023-05-20T02:18:56;9.00;99.90
52415;DHT22;38340;52.964;6.086;2023-05-20T02:21:23;9.10;99.90
52415;DHT22;38340;52.964;6.086;2023-05-20T02:23:50;9.10;99.90
52415;DHT22;38340;52.964;6.086;2023-05-20T02:26:16;9.00;99.90
52415;DHT22;38340;52.964;6.086;2023-05-20T02:28:41;9.10;99.90
52415;DHT22;38340;52.964;6.086;2023-05-20T02:31:11;9.10;99.90
52415;DHT22;38340;52.964;6.086;2023-05-20T02:33:37;9.10;99.90
52415;DHT22;38340;52.964;6.086;2023-05-20T02:36:03;9.00;99.90
52415;DHT22;38340;52.964;6.086;2023-05-20T02:38:29;9.00;99.90
52415;DHT22;38340;52.964;6.086;2023-05-20T02:40:56;9.10;99.90
52415;DHT22;38340;52.964;6.086;2023-05-20T02:43:24;9.10;99.90
52415;DHT22;38340;52.964;6.086;2023-05-20T02:45:50;9.00;99.90
52415;DHT22;38340;52.964;6.086;2023-05-20T02:48:15;9.00;99.90
52415;DHT22;38340;52.964;6.086;2023-05-20T02:50:41;9.00;99.90
52415;DHT22;38340;52.964;6.086;2023-05-20T02:53:07;9.00;99.90
52415;DHT22;38340;52.964;6.086;2023-05-20T02:55:34;9.00;99.90
52415;DHT22;38340;52.964;6.086;2023-05-20T02:58:00;9.00;99.90
52415;DHT22;38340;52.964;6.086;2023-05-20T03:00:26;8.90;99.90
52415;DHT22;38340;52.964;6.086;2023-05-20T03:02:55;8.90;99.90
52415;DHT22;38340;52.964;6.086;2023-05-20T03:05:20;8.90;99.90
52415;DHT22;38340;52.964;6.086;2023-05-20T03:07:47;8.90;99.90
52415;DHT22;38340;52.964;6.086;2023-05-20T03:10:13;8.90;99.90
52415;DHT22;38340;52.964;6.086;2023-05-20T03:12:39;8.90;99.90
52415;DHT22;38340;52.964;6.086;2023-05-20T03:15:06;8.90;99.90
52415;DHT22;38340;52.964;6.086;2023-05-20T03:17:32;8.90;99.90
52415;DHT22;38340;52.964;6.086;2023-05-20T03:19:57;8.90;99.90
52415;DHT22;38340;52.964;6.086;2023-05-20T03:22:23;8.80;99.90
52415;DHT22;38340;52.964;6.086;2023-05-20T03:24:49;8.80;99.90
52415;DHT22;38340;52.964;6.086;2023-05-20T03:27:17;8.80;99.90
52415;DHT22;38340;52.964;6.086;2023-05-20T03:29:43;8.80;99.90
52415;DHT22;38340;52.964;6.086;2023-05-20T03:32:08;8.80;99.90
52415;DHT22;38340;52.964;6.086;2023-05-20T03:34:34;8.80;99.90
52415;DHT22;38340;52.964;6.086;2023-05-20T03:37:00;8.80;99.90
52415;DHT22;38340;52.964;6.086;2023-05-20T03:39:26;8.80;99.90
52415;DHT22;38340;52.964;6.086;2023-05-20T03:41:51;8.70;99.90
52415;DHT22;38340;52.964;6.086;2023-05-20T03:44:17;8.70;99.90
52415;DHT22;38340;52.964;6.086;2023-05-20T03:46:44;8.70;99.90
52415;DHT22;38340;52.964;6.086;2023-05-20T03:49:09;8.80;99.90
52415;DHT22;38340;52.964;6.086;2023-05-20T03:51:35;8.80;99.90
52415;DHT22;38340;52.964;6.086;2023-05-20T03:54:01;8.80;99.90
52415;DHT22;38340;52.964;6.086;2023-05-20T03:56:27;8.80;99.90
52415;DHT22;38340;52.964;6.086;2023-05-20T03:58:52;8.80;99.90
52415;DHT22;38340;52.964;6.086;2023-05-20T04:01:18;8.90;99.90
52415;DHT22;38340;52.964;6.086;2023-05-20T04:03:45;8.90;99.90
52415;DHT22;38340;52.964;6.086;2023-05-20T04:06:13;9.00;99.90
52415;DHT22;38340;52.964;6.086;2023-05-20T04:08:38;9.00;99.90
52415;DHT22;38340;52.964;6.086;2023-05-20T04:11:04;9.00;99.90
52415;DHT22;38340;52.964;6.086;2023-05-20T04:13:30;9.10;99.90
52415;DHT22;38340;52.964;6.086;2023-05-20T04:15:56;9.10;99.90
52415;DHT22;38340;52.964;6.086;2023-05-20T04:18:21;9.10;99.90
52415;DHT22;38340;52.964;6.086;2023-05-20T04:20:47;9.10;99.90
52415;DHT22;38340;52.964;6.086;2023-05-20T04:23:13;9.10;99.90
52415;DHT22;38340;52.964;6.086;2023-05-20T04:25:38;9.20;99.90
52415;DHT22;38340;52.964;6.086;2023-05-20T04:28:06;9.20;99.90
52415;DHT22;38340;52.964;6.086;2023-05-20T04:30:33;9.20;99.90
52415;DHT22;38340;52.964;6.086;2023-05-20T04:33:00;9.20;99.90
52415;DHT22;38340;52.964;6.086;2023-05-20T04:35:27;9.30;99.90
52415;DHT22;38340;52.964;6.086;2023-05-20T04:37:54;9.30;99.90
52415;DHT22;38340;52.964;6.086;2023-05-20T04:40:20;9.30;99.90
52415;DHT22;38340;52.964;6.086;2023-05-20T04:42:46;9.40;99.90
52415;DHT22;38340;52.964;6.086;2023-05-20T04:45:11;9.40;99.90
52415;DHT22;38340;52.964;6.086;2023-05-20T04:47:38;9.50;99.90
52415;DHT22;38340;52.964;6.086;2023-05-20T04:50:05;9.50;99.90
52415;DHT22;38340;52.964;6.086;2023-05-20T04:52:32;9.60;99.90
52415;DHT22;38340;52.964;6.086;2023-05-20T04:54:58;9.70;99.90
52415;DHT22;38340;52.964;6.086;2023-05-20T04:57:26;9.70;99.90
52415;DHT22;38340;52.964;6.086;2023-05-20T04:59:52;9.80;99.90
52415;DHT22;38340;52.964;6.086;2023-05-20T05:02:17;9.80;99.90
52415;DHT22;38340;52.964;6.086;2023-05-20T05:04:43;9.90;99.90
52415;DHT22;38340;52.964;6.086;2023-05-20T05:07:09;9.90;99.90
52415;DHT22;38340;52.964;6.086;2023-05-20T05:09:35;9.90;99.90
52415;DHT22;38340;52.964;6.086;2023-05-20T05:12:01;10.00;99.90
52415;DHT22;38340;52.964;6.086;2023-05-20T05:14:27;10.10;99.90
52415;DHT22;38340;52.964;6.086;2023-05-20T05:16:52;10.10;99.90
52415;DHT22;38340;52.964;6.086;2023-05-20T05:19:18;10.20;99.90
52415;DHT22;38340;52.964;6.086;2023-05-20T05:21:44;10.30;99.90
52415;DHT22;38340;52.964;6.086;2023-05-20T05:24:09;10.40;99.90
52415;DHT22;38340;52.964;6.086;2023-05-20T05:26:35;10.50;99.90
52415;DHT22;38340;52.964;6.086;2023-05-20T05:29:01;10.60;99.90
52415;DHT22;38340;52.964;6.086;2023-05-20T05:31:26;10.60;99.90
52415;DHT22;38340;52.964;6.086;2023-05-20T05:33:52;10.70;99.90
52415;DHT22;38340;52.964;6.086;2023-05-20T05:36:18;10.80;99.90
52415;DHT22;38340;52.964;6.086;2023-05-20T05:38:43;10.90;99.90
52415;DHT22;38340;52.964;6.086;2023-05-20T05:41:09;10.90;99.90
52415;DHT22;38340;52.964;6.086;2023-05-20T05:43:35;11.10;99.90
52415;DHT22;38340;52.964;6.086;2023-05-20T05:46:01;11.20;99.90
52415;DHT22;38340;52.964;6.086;2023-05-20T05:48:27;11.40;99.90
52415;DHT22;38340;52.964;6.086;2023-05-20T05:50:52;11.60;99.90
52415;DHT22;38340;52.964;6.086;2023-05-20T05:53:18;12.10;99.90
52415;DHT22;38340;52.964;6.086;2023-05-20T05:55:47;12.40;99.90
52415;DHT22;38340;52.964;6.086;2023-05-20T05:58:13;12.70;99.90
52415;DHT22;38340;52.964;6.086;2023-05-20T06:00:39;12.80;99.90
52415;DHT22;38340;52.964;6.086;2023-05-20T06:03:04;12.70;99.90
52415;DHT22;38340;52.964;6.086;2023-05-20T06:05:30;12.60;99.90
52415;DHT22;38340;52.964;6.086;2023-05-20T06:07:56;12.50;99.90
52415;DHT22;38340;52.964;6.086;2023-05-20T06:10:22;12.30;99.90
52415;DHT22;38340;52.964;6.086;2023-05-20T06:12:48;12.40;99.90
52415;DHT22;38340;52.964;6.086;2023-05-20T06:15:14;12.40;99.90
52415;DHT22;38340;52.964;6.086;2023-05-20T06:17:39;12.50;99.90
52415;DHT22;38340;52.964;6.086;2023-05-20T06:20:05;12.60;99.90
52415;DHT22;38340;52.964;6.086;2023-05-20T06:22:32;12.80;99.90
52415;DHT22;38340;52.964;6.086;2023-05-20T06:24:57;13.00;99.90
52415;DHT22;38340;52.964;6.086;2023-05-20T06:27:25;13.30;99.90
52415;DHT22;38340;52.964;6.086;2023-05-20T06:29:52;13.40;90.00
52415;DHT22;38340;52.964;6.086;2023-05-20T06:32:17;13.50;1.00
52415;DHT22;38340;52.964;6.086;2023-05-20T06:34:43;13.60;1.00
52415;DHT22;38340;52.964;6.086;2023-05-20T06:37:09;13.50;99.90
52415;DHT22;38340;52.964;6.086;2023-05-20T06:39:36;13.60;99.90
52415;DHT22;38340;52.964;6.086;2023-05-20T06:42:01;13.80;99.90
52415;DHT22;38340;52.964;6.086;2023-05-20T06:44:27;13.90;99.90
52415;DHT22;38340;52.964;6.086;2023-05-20T06:46:53;14.10;13.20
52415;DHT22;38340;52.964;6.086;2023-05-20T06:49:18;14.20;1.00
52415;DHT22;38340;52.964;6.086;2023-05-20T06:51:44;14.40;30.00
52415;DHT22;38340;52.964;6.086;2023-05-20T06:54:10;14.40;1.00
52415;DHT22;38340;52.964;6.086;2023-05-20T06:56:35;14.50;1.00
52415;DHT22;38340;52.964;6.086;2023-05-20T06:59:01;14.60;99.90
52415;DHT22;38340;52.964;6.086;2023-05-20T07:01:27;14.70;99.90
52415;DHT22;38340;52.964;6.086;2023-05-20T07:03:52;14.70;99.90
52415;DHT22;38340;52.964;6.086;2023-05-20T07:06:18;14.80;99.90
52415;DHT22;38340;52.964;6.086;2023-05-20T07:08:44;14.90;99.90
52415;DHT22;38340;52.964;6.086;2023-05-20T07:11:09;15.00;99.90
52415;DHT22;38340;52.964;6.086;2023-05-20T07:13:35;15.10;99.90
52415;DHT22;38340;52.964;6.086;2023-05-20T07:16:01;15.10;96.60
52415;DHT22;38340;52.964;6.086;2023-05-20T07:18:27;15.20;99.90
52415;DHT22;38340;52.964;6.086;2023-05-20T07:20:53;15.30;99.90
52415;DHT22;38340;52.964;6.086;2023-05-20T07:23:21;15.40;99.90
52415;DHT22;38340;52.964;6.086;2023-05-20T07:25:47;15.60;99.90
52415;DHT22;38340;52.964;6.086;2023-05-20T07:28:15;15.70;99.90
52415;DHT22;38340;52.964;6.086;2023-05-20T07:30:41;15.80;1.00
52415;DHT22;38340;52.964;6.086;2023-05-20T07:33:06;16.00;1.00
52415;DHT22;38340;52.964;6.086;2023-05-20T07:35:32;16.10;1.00
52415;DHT22;38340;52.964;6.086;2023-05-20T07:37:58;16.00;99.90
52415;DHT22;38340;52.964;6.086;2023-05-20T07:40:23;16.10;99.90
52415;DHT22;38340;52.964;6.086;2023-05-20T07:42:49;16.00;99.90
52415;DHT22;38340;52.964;6.086;2023-05-20T07:45:15;16.10;99.90
52415;DHT22;38340;52.964;6.086;2023-05-20T07:47:40;16.20;99.90
52415;DHT22;38340;52.964;6.086;2023-05-20T07:50:06;16.40;99.90
52415;DHT22;38340;52.964;6.086;2023-05-20T07:52:32;16.50;45.80
52415;DHT22;38340;52.964;6.086;2023-05-20T07:54:58;16.60;1.00
52415;DHT22;38340;52.964;6.086;2023-05-20T07:57:23;16.60;1.00
52415;DHT22;38340;52.964;6.086;2023-05-20T07:59:49;16.60;99.90
52415;DHT22;38340;52.964;6.086;2023-05-20T08:02:15;16.60;99.90
52415;DHT22;38340;52.964;6.086;2023-05-20T08:04:42;16.70;99.90
52415;DHT22;38340;52.964;6.086;2023-05-20T08:07:07;16.90;1.00
52415;DHT22;38340;52.964;6.086;2023-05-20T08:09:33;17.00;1.00
52415;DHT22;38340;52.964;6.086;2023-05-20T08:11:59;17.20;1.00
52415;DHT22;38340;52.964;6.086;2023-05-20T08:14:24;17.30;99.90
52415;DHT22;38340;52.964;6.086;2023-05-20T08:16:50;17.30;99.90
52415;DHT22;38340;52.964;6.086;2023-05-20T08:19:16;17.40;99.90
52415;DHT22;38340;52.964;6.086;2023-05-20T08:21:42;17.50;99.90
52415;DHT22;38340;52.964;6.086;2023-05-20T08:24:07;17.60;1.00
52415;DHT22;38340;52.964;6.086;2023-05-20T08:26:33;17.60;99.90
52415;DHT22;38340;52.964;6.086;2023-05-20T08:28:59;17.70;1.00
52415;DHT22;38340;52.964;6.086;2023-05-20T08:31:24;17.70;1.00
52415;DHT22;38340;52.964;6.086;2023-05-20T08:33:51;17.80;99.90
52415;DHT22;38340;52.964;6.086;2023-05-20T08:36:16;17.90;1.00
52415;DHT22;38340;52.964;6.086;2023-05-20T08:38:44;17.80;99.90
52415;DHT22;38340;52.964;6.086;2023-05-20T08:41:09;17.70;99.90
52415;DHT22;38340;52.964;6.086;2023-05-20T08:43:36;17.60;99.90
52415;DHT22;38340;52.964;6.086;2023-05-20T08:46:02;17.60;99.90
52415;DHT22;38340;52.964;6.086;2023-05-20T08:48:30;17.70;99.90
52415;DHT22;38340;52.964;6.086;2023-05-20T08:50:58;17.70;99.90
52415;DHT22;38340;52.964;6.086;2023-05-20T08:53:25;17.90;1.00
52415;DHT22;38340;52.964;6.086;2023-05-20T08:55:55;17.90;99.90
52415;DHT22;38340;52.964;6.086;2023-05-20T08:58:30;17.80;99.90
52415;DHT22;38340;52.964;6.086;2023-05-20T09:00:57;17.80;99.90
52415;DHT22;38340;52.964;6.086;2023-05-20T09:03:23;17.90;99.90
52415;DHT22;38340;52.964;6.086;2023-05-20T09:05:51;18.00;99.90
52415;DHT22;38340;52.964;6.086;2023-05-20T09:08:17;18.00;99.90
52415;DHT22;38340;52.964;6.086;2023-05-20T09:10:42;17.80;99.90
52415;DHT22;38340;52.964;6.086;2023-05-20T09:13:09;17.80;99.90
52415;DHT22;38340;52.964;6.086;2023-05-20T09:15:36;17.80;1.00
52415;DHT22;38340;52.964;6.086;2023-05-20T09:18:04;17.80;99.90
52415;DHT22;38340;52.964;6.086;2023-05-20T09:20:33;17.80;99.90
52415;DHT22;38340;52.964;6.086;2023-05-20T09:23:04;17.80;1.00
52415;DHT22;38340;52.964;6.086;2023-05-20T09:25:31;18.10;1.00
52415;DHT22;38340;52.964;6.086;2023-05-20T09:27:57;18.20;99.90
52415;DHT22;38340;52.964;6.086;2023-05-20T09:30:23;18.30;99.90
52415;DHT22;38340;52.964;6.086;2023-05-20T09:32:56;18.30;99.90
52415;DHT22;38340;52.964;6.086;2023-05-20T09:35:23;18.40;99.90
52415;DHT22;38340;52.964;6.086;2023-05-20T09:37:56;18.50;99.90
52415;DHT22;38340;52.964;6.086;2023-05-20T09:40:27;18.50;99.90
52415;DHT22;38340;52.964;6.086;2023-05-20T09:43:00;18.40;99.90
52415;DHT22;38340;52.964;6.086;2023-05-20T09:45:27;18.60;99.90
52415;DHT22;38340;52.964;6.086;2023-05-20T09:47:54;18.70;99.90
52415;DHT22;38340;52.964;6.086;2023-05-20T09:50:21;18.70;99.90
52415;DHT22;38340;52.964;6.086;2023-05-20T09:52:49;18.80;99.90
52415;DHT22;38340;52.964;6.086;2023-05-20T09:55:19;18.70;99.90
52415;DHT22;38340;52.964;6.086;2023-05-20T09:57:46;18.80;99.90
52415;DHT22;38340;52.964;6.086;2023-05-20T10:00:13;18.90;99.90
52415;DHT22;38340;52.964;6.086;2023-05-20T10:02:43;19.00;99.90
52415;DHT22;38340;52.964;6.086;2023-05-20T10:05:31;19.00;99.90
52415;DHT22;38340;52.964;6.086;2023-05-20T10:21:38;19.30;99.90
52415;DHT22;38340;52.964;6.086;2023-05-20T10:24:08;19.30;99.90
52415;DHT22;38340;52.964;6.086;2023-05-20T10:26:36;19.60;99.90
52415;DHT22;38340;52.964;6.086;2023-05-20T10:29:01;19.60;99.90
52415;DHT22;38340;52.964;6.086;2023-05-20T10:31:44;19.60;99.90
52415;DHT22;38340;52.964;6.086;2023-05-20T10:34:18;19.50;99.90
52415;DHT22;38340;52.964;6.086;2023-05-20T10:36:46;19.40;99.90
52415;DHT22;38340;52.964;6.086;2023-05-20T10:39:15;19.50;99.90
52415;DHT22;38340;52.964;6.086;2023-05-20T10:41:44;19.60;99.90
52415;DHT22;38340;52.964;6.086;2023-05-20T10:44:10;19.70;99.90
52415;DHT22;38340;52.964;6.086;2023-05-20T10:46:35;19.80;99.90
52415;DHT22;38340;52.964;6.086;2023-05-20T10:49:02;19.80;99.90
52415;DHT22;38340;52.964;6.086;2023-05-20T10:51:28;19.90;99.90
52415;DHT22;38340;52.964;6.086;2023-05-20T10:53:56;20.00;99.90
52415;DHT22;38340;52.964;6.086;2023-05-20T10:56:24;20.10;99.90
52415;DHT22;38340;52.964;6.086;2023-05-20T10:58:51;20.20;99.90
52415;DHT22;38340;52.964;6.086;2023-05-20T11:01:17;20.40;99.90
52415;DHT22;38340;52.964;6.086;2023-05-20T11:03:48;20.40;99.90
52415;DHT22;38340;52.964;6.086;2023-05-20T11:06:16;20.20;99.90
52415;DHT22;38340;52.964;6.086;2023-05-20T11:08:43;20.20;99.90
52415;DHT22;38340;52.964;6.086;2023-05-20T11:11:13;20.20;99.90
52415;DHT22;38340;52.964;6.086;2023-05-20T11:13:39;20.20;99.90
52415;DHT22;38340;52.964;6.086;2023-05-20T11:16:05;20.30;99.90
52415;DHT22;38340;52.964;6.086;2023-05-20T11:18:31;20.20;99.90
52415;DHT22;38340;52.964;6.086;2023-05-20T11:20:58;20.00;99.90
52415;DHT22;38340;52.964;6.086;2023-05-20T11:23:26;20.00;99.90
52415;DHT22;38340;52.964;6.086;2023-05-20T11:25:53;20.10;99.90
52415;DHT22;38340;52.964;6.086;2023-05-20T11:28:19;20.20;99.90
52415;DHT22;38340;52.964;6.086;2023-05-20T11:30:49;20.10;99.90
52415;DHT22;38340;52.964;6.086;2023-05-20T11:33:16;20.10;99.90
52415;DHT22;38340;52.964;6.086;2023-05-20T11:35:46;19.90;99.90
52415;DHT22;38340;52.964;6.086;2023-05-20T11:38:12;19.80;99.90
52415;DHT22;38340;52.964;6.086;2023-05-20T11:40:43;19.90;99.90
52415;DHT22;38340;52.964;6.086;2023-05-20T11:43:10;20.10;99.90
52415;DHT22;38340;52.964;6.086;2023-05-20T11:45:41;20.10;99.90
52415;DHT22;38340;52.964;6.086;2023-05-20T11:48:07;20.00;99.90
52415;DHT22;38340;52.964;6.086;2023-05-20T11:50:38;20.00;99.90
52415;DHT22;38340;52.964;6.086;2023-05-20T11:53:06;20.20;99.90
52415;DHT22;38340;52.964;6.086;2023-05-20T11:55:33;20.50;99.90
52415;DHT22;38340;52.964;6.086;2023-05-20T11:58:00;20.80;99.90
52415;DHT22;38340;52.964;6.086;2023-05-20T12:00:26;20.80;99.90
52415;DHT22;38340;52.964;6.086;2023-05-20T12:02:52;20.50;99.90
52415;DHT22;38340;52.964;6.086;2023-05-20T12:05:18;20.20;99.90
52415;DHT22;38340;52.964;6.086;2023-05-20T12:07:44;20.20;99.90
52415;DHT22;38340;52.964;6.086;2023-05-20T12:10:10;20.20;99.90
52415;DHT22;38340;52.964;6.086;2023-05-20T12:12:36;20.40;99.90
52415;DHT22;38340;52.964;6.086;2023-05-20T12:15:03;20.50;99.90
52415;DHT22;38340;52.964;6.086;2023-05-20T12:17:30;20.50;99.90
52415;DHT22;38340;52.964;6.086;2023-05-20T12:19:56;20.40;99.90
52415;DHT22;38340;52.964;6.086;2023-05-20T12:22:21;20.40;99.90
52415;DHT22;38340;52.964;6.086;2023-05-20T12:24:49;20.30;99.90
52415;DHT22;38340;52.964;6.086;2023-05-20T12:27:15;20.20;99.90
52415;DHT22;38340;52.964;6.086;2023-05-20T12:29:41;20.20;99.90
52415;DHT22;38340;52.964;6.086;2023-05-20T12:32:06;20.30;99.90
52415;DHT22;38340;52.964;6.086;2023-05-20T12:34:32;20.40;99.90
52415;DHT22;38340;52.964;6.086;2023-05-20T12:36:58;20.60;99.90
52415;DHT22;38340;52.964;6.086;2023-05-20T12:39:23;20.60;99.90
52415;DHT22;38340;52.964;6.086;2023-05-20T12:41:49;20.60;99.90
52415;DHT22;38340;52.964;6.086;2023-05-20T12:44:15;20.70;99.90
52415;DHT22;38340;52.964;6.086;2023-05-20T12:46:41;20.80;98.70
52415;DHT22;38340;52.964;6.086;2023-05-20T12:49:07;20.80;99.90
52415;DHT22;38340;52.964;6.086;2023-05-20T12:51:32;20.90;96.30
52415;DHT22;38340;52.964;6.086;2023-05-20T12:53:58;20.80;99.30
52415;DHT22;38340;52.964;6.086;2023-05-20T12:56:23;20.60;99.90
52415;DHT22;38340;52.964;6.086;2023-05-20T12:58:50;20.50;99.90
52415;DHT22;38340;52.964;6.086;2023-05-20T13:01:16;20.60;99.90
52415;DHT22;38340;52.964;6.086;2023-05-20T13:03:42;20.60;98.60
52415;DHT22;38340;52.964;6.086;2023-05-20T13:06:07;20.40;99.90
52415;DHT22;38340;52.964;6.086;2023-05-20T13:08:33;20.50;99.90
52415;DHT22;38340;52.964;6.086;2023-05-20T13:10:59;20.60;99.90
52415;DHT22;38340;52.964;6.086;2023-05-20T13:13:24;20.60;99.90
52415;DHT22;38340;52.964;6.086;2023-05-20T13:15:50;20.60;99.90
52415;DHT22;38340;52.964;6.086;2023-05-20T13:18:16;20.60;99.90
52415;DHT22;38340;52.964;6.086;2023-05-20T13:20:43;20.50;99.90
52415;DHT22;38340;52.964;6.086;2023-05-20T13:23:08;20.50;99.90
52415;DHT22;38340;52.964;6.086;2023-05-20T13:25:34;20.60;99.90
52415;DHT22;38340;52.964;6.086;2023-05-20T13:28:02;20.50;99.90
52415;DHT22;38340;52.964;6.086;2023-05-20T13:30:28;20.50;99.90
52415;DHT22;38340;52.964;6.086;2023-05-20T13:32:54;20.30;99.90
52415;DHT22;38340;52.964;6.086;2023-05-20T13:35:20;20.00;99.90
52415;DHT22;38340;52.964;6.086;2023-05-20T13:37:45;20.00;99.90
52415;DHT22;38340;52.964;6.086;2023-05-20T13:40:11;20.10;99.90
52415;DHT22;38340;52.964;6.086;2023-05-20T13:42:37;20.30;99.90
52415;DHT22;38340;52.964;6.086;2023-05-20T13:45:03;20.40;99.90
52415;DHT22;38340;52.964;6.086;2023-05-20T13:47:29;20.20;99.90
52415;DHT22;38340;52.964;6.086;2023-05-20T13:49:55;20.00;99.90
52415;DHT22;38340;52.964;6.086;2023-05-20T13:52:20;19.80;99.90
52415;DHT22;38340;52.964;6.086;2023-05-20T13:54:46;19.80;99.90
52415;DHT22;38340;52.964;6.086;2023-05-20T13:57:16;20.00;99.90
52415;DHT22;38340;52.964;6.086;2023-05-20T13:59:42;20.20;99.90
52415;DHT22;38340;52.964;6.086;2023-05-20T14:02:08;20.50;1.00
52415;DHT22;38340;52.964;6.086;2023-05-20T14:04:33;20.60;1.00
52415;DHT22;38340;52.964;6.086;2023-05-20T14:07:03;20.50;1.00
52415;DHT22;38340;52.964;6.086;2023-05-20T14:09:29;20.30;1.00
52415;DHT22;38340;52.964;6.086;2023-05-20T14:11:55;20.20;1.00
52415;DHT22;38340;52.964;6.086;2023-05-20T14:14:21;20.10;1.00
52415;DHT22;38340;52.964;6.086;2023-05-20T14:16:47;20.00;1.00
52415;DHT22;38340;52.964;6.086;2023-05-20T14:19:12;20.10;1.00
52415;DHT22;38340;52.964;6.086;2023-05-20T14:21:38;20.10;1.00
52415;DHT22;38340;52.964;6.086;2023-05-20T14:24:04;20.10;1.00
52415;DHT22;38340;52.964;6.086;2023-05-20T14:26:32;20.10;1.00
52415;DHT22;38340;52.964;6.086;2023-05-20T14:28:58;20.20;99.90
52415;DHT22;38340;52.964;6.086;2023-05-20T14:31:25;20.20;1.00
52415;DHT22;38340;52.964;6.086;2023-05-20T14:33:50;20.40;1.00
52415;DHT22;38340;52.964;6.086;2023-05-20T14:36:16;20.50;1.00
52415;DHT22;38340;52.964;6.086;2023-05-20T14:38:42;20.50;1.00
52415;DHT22;38340;52.964;6.086;2023-05-20T14:41:07;20.50;1.00
52415;DHT22;38340;52.964;6.086;2023-05-20T14:43:33;20.40;1.00
52415;DHT22;38340;52.964;6.086;2023-05-20T14:45:59;20.50;1.00
52415;DHT22;38340;52.964;6.086;2023-05-20T14:48:25;20.50;1.00
52415;DHT22;38340;52.964;6.086;2023-05-20T14:50:50;20.50;1.00
52415;DHT22;38340;52.964;6.086;2023-05-20T14:53:16;20.50;1.00
52415;DHT22;38340;52.964;6.086;2023-05-20T14:55:43;20.40;1.00
52415;DHT22;38340;52.964;6.086;2023-05-20T14:58:09;20.40;1.00
52415;DHT22;38340;52.964;6.086;2023-05-20T15:00:35;20.20;1.00
52415;DHT22;38340;52.964;6.086;2023-05-20T15:03:00;20.20;1.00
52415;DHT22;38340;52.964;6.086;2023-05-20T15:05:26;20.20;1.00
52415;DHT22;38340;52.964;6.086;2023-05-20T15:07:51;20.00;1.00
52415;DHT22;38340;52.964;6.086;2023-05-20T15:10:17;19.80;1.00
52415;DHT22;38340;52.964;6.086;2023-05-20T15:12:43;19.50;1.00
52415;DHT22;38340;52.964;6.086;2023-05-20T15:15:09;19.40;1.00
52415;DHT22;38340;52.964;6.086;2023-05-20T15:17:35;19.20;1.00
52415;DHT22;38340;52.964;6.086;2023-05-20T15:20:02;19.10;1.00
52415;DHT22;38340;52.964;6.086;2023-05-20T15:22:28;19.00;1.00
52415;DHT22;38340;52.964;6.086;2023-05-20T15:24:53;19.00;44.80
52415;DHT22;38340;52.964;6.086;2023-05-20T15:27:19;19.00;34.70
52415;DHT22;38340;52.964;6.086;2023-05-20T15:29:45;19.10;68.10
52415;DHT22;38340;52.964;6.086;2023-05-20T15:32:13;19.20;99.90
52415;DHT22;38340;52.964;6.086;2023-05-20T15:34:39;19.30;99.90
52415;DHT22;38340;52.964;6.086;2023-05-20T15:37:04;19.40;11.70
52415;DHT22;38340;52.964;6.086;2023-05-20T15:39:30;19.70;38.70
52415;DHT22;38340;52.964;6.086;2023-05-20T15:41:56;19.80;1.00
52415;DHT22;38340;52.964;6.086;2023-05-20T15:44:23;19.80;1.00
52415;DHT22;38340;52.964;6.086;2023-05-20T15:46:49;19.60;1.00
52415;DHT22;38340;52.964;6.086;2023-05-20T15:49:15;19.50;1.00